Redby, Minnesota
Current Conditions -  °F | °C
As of 11:54 PM on Wednesday 22 Oct 2014 (Local Time) from KVWU Reporting Station
Light Rain Light Rain  
Wind Chill: 52°   Ceiling: 2400
Heat Index: 52°   Visibility: 10mi
Dew Point: 48°   Wind: 0mph
Humidity: 88%   Direction: NA
Pressure: 29.89"   Gusts: NA
Location:  47.88°N, 94.91°W
Report Text: KVWU 230454Z AUTO 00000KT 10SM -RA OVC024 11/09 A2989 RMK AO2
Loading
Personal Weather Stations






























Interactive Weather Map
Tropical Storm Tracking
New forecast layout! Learn more

10-Day Weather Forecast

Advertisements
Track Severe Weather on mobile